sensor_id;sensor_type;location;lat;lon;timestamp;temperature;humidity
46562;DHT22;32289;42.688;23.330;2023-04-28T00:02:30;6.70;75.10
46562;DHT22;32289;42.688;23.330;2023-04-28T00:06:11;6.70;74.50
46562;DHT22;32289;42.688;23.330;2023-04-28T00:09:52;6.70;75.10
46562;DHT22;32289;42.688;23.330;2023-04-28T00:13:32;6.60;74.60
46562;DHT22;32289;42.688;23.330;2023-04-28T00:17:14;6.50;75.90
46562;DHT22;32289;42.688;23.330;2023-04-28T00:20:55;6.50;76.10
46562;DHT22;32289;42.688;23.330;2023-04-28T00:24:36;6.40;77.00
46562;DHT22;32289;42.688;23.330;2023-04-28T00:28:16;6.40;77.70
46562;DHT22;32289;42.688;23.330;2023-04-28T00:31:57;6.30;78.90
46562;DHT22;32289;42.688;23.330;2023-04-28T00:35:39;6.30;79.00
46562;DHT22;32289;42.688;23.330;2023-04-28T00:39:20;6.30;79.80
46562;DHT22;32289;42.688;23.330;2023-04-28T00:43:02;6.20;80.20
46562;DHT22;32289;42.688;23.330;2023-04-28T00:46:43;6.10;81.40
46562;DHT22;32289;42.688;23.330;2023-04-28T00:50:24;6.10;82.80
46562;DHT22;32289;42.688;23.330;2023-04-28T00:54:08;6.00;83.40
46562;DHT22;32289;42.688;23.330;2023-04-28T00:57:54;6.00;84.20
46562;DHT22;32289;42.688;23.330;2023-04-28T01:01:36;6.00;85.20
46562;DHT22;32289;42.688;23.330;2023-04-28T01:05:17;5.90;85.00
46562;DHT22;32289;42.688;23.330;2023-04-28T01:08:58;5.90;86.30
46562;DHT22;32289;42.688;23.330;2023-04-28T01:12:39;5.80;87.60
46562;DHT22;32289;42.688;23.330;2023-04-28T01:16:19;5.70;88.20
46562;DHT22;32289;42.688;23.330;2023-04-28T01:20:00;5.80;89.10
46562;DHT22;32289;42.688;23.330;2023-04-28T01:23:44;5.80;89.60
46562;DHT22;32289;42.688;23.330;2023-04-28T01:27:25;5.70;90.00
46562;DHT22;32289;42.688;23.330;2023-04-28T01:31:06;5.70;90.50
46562;DHT22;32289;42.688;23.330;2023-04-28T01:34:46;5.60;90.40
46562;DHT22;32289;42.688;23.330;2023-04-28T01:38:28;5.60;90.30
46562;DHT22;32289;42.688;23.330;2023-04-28T01:42:08;5.70;89.50
46562;DHT22;32289;42.688;23.330;2023-04-28T01:45:50;5.60;90.40
46562;DHT22;32289;42.688;23.330;2023-04-28T01:49:31;5.60;90.30
46562;DHT22;32289;42.688;23.330;2023-04-28T01:53:12;5.60;90.50
46562;DHT22;32289;42.688;23.330;2023-04-28T01:56:53;5.50;89.90
46562;DHT22;32289;42.688;23.330;2023-04-28T02:00:34;5.50;89.60
46562;DHT22;32289;42.688;23.330;2023-04-28T02:04:15;5.50;90.00
46562;DHT22;32289;42.688;23.330;2023-04-28T02:07:56;5.50;90.10
46562;DHT22;32289;42.688;23.330;2023-04-28T02:11:36;5.40;90.80
46562;DHT22;32289;42.688;23.330;2023-04-28T02:15:17;5.40;90.50
46562;DHT22;32289;42.688;23.330;2023-04-28T02:18:58;5.40;90.70
46562;DHT22;32289;42.688;23.330;2023-04-28T02:22:40;5.30;90.90
46562;DHT22;32289;42.688;23.330;2023-04-28T02:26:20;5.30;91.10
46562;DHT22;32289;42.688;23.330;2023-04-28T02:30:06;5.30;91.80
46562;DHT22;32289;42.688;23.330;2023-04-28T02:33:46;5.20;92.20
46562;DHT22;32289;42.688;23.330;2023-04-28T02:37:27;5.20;92.40
46562;DHT22;32289;42.688;23.330;2023-04-28T02:41:08;5.20;92.50
46562;DHT22;32289;42.688;23.330;2023-04-28T02:44:49;5.20;92.90
46562;DHT22;32289;42.688;23.330;2023-04-28T02:48:29;5.20;92.90
46562;DHT22;32289;42.688;23.330;2023-04-28T02:52:11;5.20;92.00
46562;DHT22;32289;42.688;23.330;2023-04-28T02:55:51;5.30;92.60
46562;DHT22;32289;42.688;23.330;2023-04-28T02:59:32;5.30;92.50
46562;DHT22;32289;42.688;23.330;2023-04-28T03:03:13;5.30;92.50
46562;DHT22;32289;42.688;23.330;2023-04-28T03:06:54;5.30;92.90
46562;DHT22;32289;42.688;23.330;2023-04-28T03:10:35;5.20;93.20
46562;DHT22;32289;42.688;23.330;2023-04-28T03:14:15;5.20;93.40
46562;DHT22;32289;42.688;23.330;2023-04-28T03:17:56;5.30;92.70
46562;DHT22;32289;42.688;23.330;2023-04-28T03:21:38;5.30;92.90
46562;DHT22;32289;42.688;23.330;2023-04-28T03:25:18;5.30;92.40
46562;DHT22;32289;42.688;23.330;2023-04-28T03:28:59;5.30;91.70
46562;DHT22;32289;42.688;23.330;2023-04-28T03:32:40;5.20;91.70
46562;DHT22;32289;42.688;23.330;2023-04-28T03:36:21;5.30;91.90
46562;DHT22;32289;42.688;23.330;2023-04-28T03:40:01;5.30;91.30
46562;DHT22;32289;42.688;23.330;2023-04-28T03:43:43;5.70;91.20
46562;DHT22;32289;42.688;23.330;2023-04-28T03:47:23;5.80;87.60
46562;DHT22;32289;42.688;23.330;2023-04-28T03:51:04;5.50;89.40
46562;DHT22;32289;42.688;23.330;2023-04-28T03:54:45;5.60;89.80
46562;DHT22;32289;42.688;23.330;2023-04-28T03:58:26;5.60;88.60
46562;DHT22;32289;42.688;23.330;2023-04-28T04:02:07;5.50;89.70
46562;DHT22;32289;42.688;23.330;2023-04-28T04:05:48;5.50;89.60
46562;DHT22;32289;42.688;23.330;2023-04-28T04:09:29;5.50;88.90
46562;DHT22;32289;42.688;23.330;2023-04-28T04:13:10;5.50;88.50
46562;DHT22;32289;42.688;23.330;2023-04-28T04:16:51;5.60;87.80
46562;DHT22;32289;42.688;23.330;2023-04-28T04:20:31;5.70;86.30
46562;DHT22;32289;42.688;23.330;2023-04-28T04:24:12;5.60;84.70
46562;DHT22;32289;42.688;23.330;2023-04-28T04:27:53;5.70;83.90
46562;DHT22;32289;42.688;23.330;2023-04-28T04:31:34;5.70;83.00
46562;DHT22;32289;42.688;23.330;2023-04-28T04:35:14;5.80;82.90
46562;DHT22;32289;42.688;23.330;2023-04-28T04:38:55;5.90;81.50
46562;DHT22;32289;42.688;23.330;2023-04-28T04:42:36;5.90;81.80
46562;DHT22;32289;42.688;23.330;2023-04-28T04:46:17;6.00;80.70
46562;DHT22;32289;42.688;23.330;2023-04-28T04:49:57;6.10;79.10
46562;DHT22;32289;42.688;23.330;2023-04-28T04:53:38;7.70;69.40
46562;DHT22;32289;42.688;23.330;2023-04-28T04:57:20;8.00;65.50
46562;DHT22;32289;42.688;23.330;2023-04-28T05:01:01;8.10;66.00
46562;DHT22;32289;42.688;23.330;2023-04-28T05:04:41;9.40;62.00
46562;DHT22;32289;42.688;23.330;2023-04-28T05:08:22;9.40;61.00
46562;DHT22;32289;42.688;23.330;2023-04-28T05:12:04;10.60;56.80
46562;DHT22;32289;42.688;23.330;2023-04-28T05:15:45;11.30;54.40
46562;DHT22;32289;42.688;23.330;2023-04-28T05:19:26;9.50;58.90
46562;DHT22;32289;42.688;23.330;2023-04-28T05:23:07;8.20;63.00
46562;DHT22;32289;42.688;23.330;2023-04-28T05:26:47;10.00;58.90
46562;DHT22;32289;42.688;23.330;2023-04-28T05:30:28;11.90;53.40
46562;DHT22;32289;42.688;23.330;2023-04-28T05:34:09;13.20;51.70
46562;DHT22;32289;42.688;23.330;2023-04-28T05:37:50;13.40;50.10
46562;DHT22;32289;42.688;23.330;2023-04-28T05:41:31;14.00;49.10
46562;DHT22;32289;42.688;23.330;2023-04-28T05:45:11;14.30;49.20
46562;DHT22;32289;42.688;23.330;2023-04-28T05:48:52;13.10;50.50
46562;DHT22;32289;42.688;23.330;2023-04-28T05:52:32;13.90;48.70
46562;DHT22;32289;42.688;23.330;2023-04-28T05:56:16;14.00;48.40
46562;DHT22;32289;42.688;23.330;2023-04-28T05:59:57;14.00;48.00
46562;DHT22;32289;42.688;23.330;2023-04-28T06:03:38;13.30;48.90
46562;DHT22;32289;42.688;23.330;2023-04-28T06:07:21;14.50;47.10
46562;DHT22;32289;42.688;23.330;2023-04-28T06:11:02;14.50;48.50
46562;DHT22;32289;42.688;23.330;2023-04-28T06:14:43;14.60;47.80
46562;DHT22;32289;42.688;23.330;2023-04-28T06:18:23;14.80;46.80
46562;DHT22;32289;42.688;23.330;2023-04-28T06:22:05;14.60;47.30
46562;DHT22;32289;42.688;23.330;2023-04-28T06:25:45;15.70;47.00
46562;DHT22;32289;42.688;23.330;2023-04-28T06:29:26;15.20;45.90
46562;DHT22;32289;42.688;23.330;2023-04-28T06:33:07;17.30;43.10
46562;DHT22;32289;42.688;23.330;2023-04-28T06:36:48;16.60;44.30
46562;DHT22;32289;42.688;23.330;2023-04-28T06:40:29;15.30;45.40
46562;DHT22;32289;42.688;23.330;2023-04-28T06:44:09;15.50;46.10
46562;DHT22;32289;42.688;23.330;2023-04-28T06:47:50;16.20;44.40
46562;DHT22;32289;42.688;23.330;2023-04-28T06:51:31;15.70;44.30
46562;DHT22;32289;42.688;23.330;2023-04-28T06:55:15;16.80;43.80
46562;DHT22;32289;42.688;23.330;2023-04-28T06:58:56;17.00;42.90
46562;DHT22;32289;42.688;23.330;2023-04-28T07:02:38;15.10;44.90
46562;DHT22;32289;42.688;23.330;2023-04-28T07:06:19;15.80;43.70
46562;DHT22;32289;42.688;23.330;2023-04-28T07:10:00;16.10;44.20
46562;DHT22;32289;42.688;23.330;2023-04-28T07:13:40;17.10;41.70
46562;DHT22;32289;42.688;23.330;2023-04-28T07:17:21;17.10;41.90
46562;DHT22;32289;42.688;23.330;2023-04-28T07:21:02;16.80;43.20
46562;DHT22;32289;42.688;23.330;2023-04-28T07:24:43;18.80;39.50
46562;DHT22;32289;42.688;23.330;2023-04-28T07:28:24;17.70;41.40
46562;DHT22;32289;42.688;23.330;2023-04-28T07:32:04;17.60;40.40
46562;DHT22;32289;42.688;23.330;2023-04-28T07:35:47;17.60;41.00
46562;DHT22;32289;42.688;23.330;2023-04-28T07:39:30;17.30;40.50
46562;DHT22;32289;42.688;23.330;2023-04-28T07:43:11;18.30;40.00
46562;DHT22;32289;42.688;23.330;2023-04-28T07:46:52;19.00;38.60
46562;DHT22;32289;42.688;23.330;2023-04-28T07:50:33;17.80;41.00
46562;DHT22;32289;42.688;23.330;2023-04-28T07:54:14;17.20;41.20
46562;DHT22;32289;42.688;23.330;2023-04-28T07:57:55;16.90;41.40
46562;DHT22;32289;42.688;23.330;2023-04-28T08:01:38;18.90;40.20
46562;DHT22;32289;42.688;23.330;2023-04-28T08:05:18;17.70;40.50
46562;DHT22;32289;42.688;23.330;2023-04-28T08:08:59;18.80;38.70
46562;DHT22;32289;42.688;23.330;2023-04-28T08:12:41;17.20;40.00
46562;DHT22;32289;42.688;23.330;2023-04-28T08:16:24;19.40;38.60
46562;DHT22;32289;42.688;23.330;2023-04-28T08:20:06;18.10;39.40
46562;DHT22;32289;42.688;23.330;2023-04-28T08:23:47;17.80;40.70
46562;DHT22;32289;42.688;23.330;2023-04-28T08:27:27;18.00;40.90
46562;DHT22;32289;42.688;23.330;2023-04-28T08:31:08;17.70;41.00
46562;DHT22;32289;42.688;23.330;2023-04-28T08:34:49;17.70;40.80
46562;DHT22;32289;42.688;23.330;2023-04-28T08:38:29;17.70;40.10
46562;DHT22;32289;42.688;23.330;2023-04-28T08:42:10;18.20;40.10
46562;DHT22;32289;42.688;23.330;2023-04-28T08:45:51;18.70;40.20
46562;DHT22;32289;42.688;23.330;2023-04-28T08:49:34;19.20;39.20
46562;DHT22;32289;42.688;23.330;2023-04-28T08:53:23;19.00;39.10
46562;DHT22;32289;42.688;23.330;2023-04-28T08:57:07;20.40;39.10
46562;DHT22;32289;42.688;23.330;2023-04-28T09:00:50;21.60;37.30
46562;DHT22;32289;42.688;23.330;2023-04-28T09:04:31;18.80;38.90
46562;DHT22;32289;42.688;23.330;2023-04-28T09:08:12;18.70;39.00
46562;DHT22;32289;42.688;23.330;2023-04-28T09:11:57;19.00;39.70
46562;DHT22;32289;42.688;23.330;2023-04-28T09:15:38;18.30;39.50
46562;DHT22;32289;42.688;23.330;2023-04-28T09:19:22;19.20;39.30
46562;DHT22;32289;42.688;23.330;2023-04-28T09:23:16;17.90;39.60
46562;DHT22;32289;42.688;23.330;2023-04-28T09:26:58;17.90;41.00
46562;DHT22;32289;42.688;23.330;2023-04-28T09:30:40;18.30;40.30
46562;DHT22;32289;42.688;23.330;2023-04-28T09:34:20;19.40;39.40
46562;DHT22;32289;42.688;23.330;2023-04-28T09:38:01;18.50;39.50
46562;DHT22;32289;42.688;23.330;2023-04-28T09:41:42;19.60;36.60
46562;DHT22;32289;42.688;23.330;2023-04-28T09:45:24;19.40;38.80
46562;DHT22;32289;42.688;23.330;2023-04-28T09:49:06;20.20;38.50
46562;DHT22;32289;42.688;23.330;2023-04-28T09:52:55;19.60;36.70
46562;DHT22;32289;42.688;23.330;2023-04-28T09:56:36;17.80;40.20
46562;DHT22;32289;42.688;23.330;2023-04-28T10:00:21;18.20;38.80
46562;DHT22;32289;42.688;23.330;2023-04-28T10:04:03;19.00;38.00
46562;DHT22;32289;42.688;23.330;2023-04-28T10:07:44;17.30;38.80
46562;DHT22;32289;42.688;23.330;2023-04-28T10:11:26;17.10;39.80
46562;DHT22;32289;42.688;23.330;2023-04-28T10:15:09;17.70;39.70
46562;DHT22;32289;42.688;23.330;2023-04-28T10:18:50;18.50;40.10
46562;DHT22;32289;42.688;23.330;2023-04-28T10:22:45;18.10;40.80
46562;DHT22;32289;42.688;23.330;2023-04-28T10:30:31;19.30;38.70
46562;DHT22;32289;42.688;23.330;2023-04-28T10:34:21;18.40;38.40
46562;DHT22;32289;42.688;23.330;2023-04-28T10:38:02;18.10;38.20
46562;DHT22;32289;42.688;23.330;2023-04-28T10:41:45;18.00;38.40
46562;DHT22;32289;42.688;23.330;2023-04-28T10:57:24;18.40;37.30
46562;DHT22;32289;42.688;23.330;2023-04-28T11:05:10;19.40;37.00
46562;DHT22;32289;42.688;23.330;2023-04-28T11:08:52;18.30;37.70
46562;DHT22;32289;42.688;23.330;2023-04-28T11:12:35;17.50;38.60
46562;DHT22;32289;42.688;23.330;2023-04-28T11:16:17;18.00;38.10
46562;DHT22;32289;42.688;23.330;2023-04-28T11:19:59;17.80;37.20
46562;DHT22;32289;42.688;23.330;2023-04-28T11:23:41;17.50;38.40
46562;DHT22;32289;42.688;23.330;2023-04-28T11:27:23;18.20;38.20
46562;DHT22;32289;42.688;23.330;2023-04-28T11:31:11;18.70;37.10
46562;DHT22;32289;42.688;23.330;2023-04-28T11:34:52;19.00;38.30
46562;DHT22;32289;42.688;23.330;2023-04-28T11:38:43;19.30;37.80
46562;DHT22;32289;42.688;23.330;2023-04-28T11:42:24;19.40;36.50
46562;DHT22;32289;42.688;23.330;2023-04-28T11:46:07;18.90;37.10
46562;DHT22;32289;42.688;23.330;2023-04-28T11:49:47;18.10;37.50
46562;DHT22;32289;42.688;23.330;2023-04-28T11:53:44;17.30;39.40
46562;DHT22;32289;42.688;23.330;2023-04-28T11:57:25;17.80;39.40
46562;DHT22;32289;42.688;23.330;2023-04-28T12:01:13;18.10;39.40
46562;DHT22;32289;42.688;23.330;2023-04-28T12:04:55;18.00;39.10
46562;DHT22;32289;42.688;23.330;2023-04-28T12:08:36;18.20;38.60
46562;DHT22;32289;42.688;23.330;2023-04-28T12:12:29;18.40;38.50
46562;DHT22;32289;42.688;23.330;2023-04-28T12:16:11;17.80;39.60
46562;DHT22;32289;42.688;23.330;2023-04-28T12:19:53;17.10;40.30
46562;DHT22;32289;42.688;23.330;2023-04-28T12:23:35;17.20;42.40
46562;DHT22;32289;42.688;23.330;2023-04-28T12:27:19;16.80;41.50
46562;DHT22;32289;42.688;23.330;2023-04-28T12:31:06;17.00;41.40
46562;DHT22;32289;42.688;23.330;2023-04-28T12:34:48;17.10;41.30
46562;DHT22;32289;42.688;23.330;2023-04-28T12:38:30;17.10;40.90
46562;DHT22;32289;42.688;23.330;2023-04-28T12:42:11;17.40;43.20
46562;DHT22;32289;42.688;23.330;2023-04-28T12:45:53;16.60;41.80
46562;DHT22;32289;42.688;23.330;2023-04-28T12:49:35;17.70;42.80
46562;DHT22;32289;42.688;23.330;2023-04-28T12:53:16;17.90;41.00
46562;DHT22;32289;42.688;23.330;2023-04-28T12:56:57;17.90;41.30
46562;DHT22;32289;42.688;23.330;2023-04-28T13:00:37;17.40;42.40
46562;DHT22;32289;42.688;23.330;2023-04-28T13:04:18;17.50;41.20
46562;DHT22;32289;42.688;23.330;2023-04-28T13:07:59;17.20;41.20
46562;DHT22;32289;42.688;23.330;2023-04-28T13:11:40;17.20;41.50
46562;DHT22;32289;42.688;23.330;2023-04-28T13:15:21;17.60;40.60
46562;DHT22;32289;42.688;23.330;2023-04-28T13:19:03;17.70;42.00
46562;DHT22;32289;42.688;23.330;2023-04-28T13:22:43;17.70;42.10
46562;DHT22;32289;42.688;23.330;2023-04-28T13:26:25;17.50;41.00
46562;DHT22;32289;42.688;23.330;2023-04-28T13:30:06;17.50;41.80
46562;DHT22;32289;42.688;23.330;2023-04-28T13:33:48;17.30;42.00
46562;DHT22;32289;42.688;23.330;2023-04-28T13:37:29;17.30;42.10
46562;DHT22;32289;42.688;23.330;2023-04-28T13:41:09;17.40;42.30
46562;DHT22;32289;42.688;23.330;2023-04-28T13:44:50;17.20;42.30
46562;DHT22;32289;42.688;23.330;2023-04-28T13:48:31;17.40;42.10
46562;DHT22;32289;42.688;23.330;2023-04-28T13:52:12;17.30;43.00
46562;DHT22;32289;42.688;23.330;2023-04-28T13:55:53;17.20;41.60
46562;DHT22;32289;42.688;23.330;2023-04-28T13:59:36;17.50;42.10
46562;DHT22;32289;42.688;23.330;2023-04-28T14:03:20;17.60;41.40
46562;DHT22;32289;42.688;23.330;2023-04-28T14:07:02;17.20;41.30
46562;DHT22;32289;42.688;23.330;2023-04-28T14:10:43;17.40;42.20
46562;DHT22;32289;42.688;23.330;2023-04-28T14:14:23;17.10;41.90
46562;DHT22;32289;42.688;23.330;2023-04-28T14:18:04;17.20;42.20
46562;DHT22;32289;42.688;23.330;2023-04-28T14:21:46;17.40;42.40
46562;DHT22;32289;42.688;23.330;2023-04-28T14:25:27;17.60;42.10
46562;DHT22;32289;42.688;23.330;2023-04-28T14:29:08;17.60;42.10
46562;DHT22;32289;42.688;23.330;2023-04-28T14:32:49;17.60;42.00
46562;DHT22;32289;42.688;23.330;2023-04-28T14:36:30;17.60;41.60
46562;DHT22;32289;42.688;23.330;2023-04-28T14:40:13;17.50;41.70
46562;DHT22;32289;42.688;23.330;2023-04-28T14:43:54;17.10;41.10
46562;DHT22;32289;42.688;23.330;2023-04-28T14:47:36;17.20;41.30
46562;DHT22;32289;42.688;23.330;2023-04-28T14:51:17;17.20;42.10
46562;DHT22;32289;42.688;23.330;2023-04-28T14:54:59;17.40;42.50
46562;DHT22;32289;42.688;23.330;2023-04-28T14:58:40;17.20;42.00
46562;DHT22;32289;42.688;23.330;2023-04-28T15:02:21;17.10;41.80
46562;DHT22;32289;42.688;23.330;2023-04-28T15:06:05;17.10;41.90
46562;DHT22;32289;42.688;23.330;2023-04-28T15:09:46;17.10;42.10
46562;DHT22;32289;42.688;23.330;2023-04-28T15:13:27;16.60;42.60
46562;DHT22;32289;42.688;23.330;2023-04-28T15:17:08;16.50;42.30
46562;DHT22;32289;42.688;23.330;2023-04-28T15:20:50;16.70;42.10
46562;DHT22;32289;42.688;23.330;2023-04-28T15:24:30;16.80;42.20
46562;DHT22;32289;42.688;23.330;2023-04-28T15:28:11;16.80;42.40
46562;DHT22;32289;42.688;23.330;2023-04-28T15:31:52;16.80;42.40
46562;DHT22;32289;42.688;23.330;2023-04-28T15:35:33;16.90;42.20
46562;DHT22;32289;42.688;23.330;2023-04-28T15:39:14;16.60;42.60
46562;DHT22;32289;42.688;23.330;2023-04-28T15:42:55;16.60;42.70
46562;DHT22;32289;42.688;23.330;2023-04-28T15:46:36;16.40;42.80
46562;DHT22;32289;42.688;23.330;2023-04-28T15:50:17;16.30;43.20
46562;DHT22;32289;42.688;23.330;2023-04-28T15:53:58;16.40;43.00
46562;DHT22;32289;42.688;23.330;2023-04-28T15:57:40;16.40;42.80
46562;DHT22;32289;42.688;23.330;2023-04-28T16:01:21;16.30;43.50
46562;DHT22;32289;42.688;23.330;2023-04-28T16:05:02;16.30;42.80
46562;DHT22;32289;42.688;23.330;2023-04-28T16:08:44;16.20;43.20
46562;DHT22;32289;42.688;23.330;2023-04-28T16:12:25;16.10;42.90
46562;DHT22;32289;42.688;23.330;2023-04-28T16:16:05;16.00;43.10
46562;DHT22;32289;42.688;23.330;2023-04-28T16:19:48;16.00;42.70
46562;DHT22;32289;42.688;23.330;2023-04-28T16:23:29;15.80;42.80
46562;DHT22;32289;42.688;23.330;2023-04-28T16:27:09;15.50;43.10
46562;DHT22;32289;42.688;23.330;2023-04-28T16:30:51;15.40;43.20
46562;DHT22;32289;42.688;23.330;2023-04-28T16:34:31;15.50;43.30
46562;DHT22;32289;42.688;23.330;2023-04-28T16:38:12;15.30;43.40
46562;DHT22;32289;42.688;23.330;2023-04-28T16:41:53;15.20;43.50
46562;DHT22;32289;42.688;23.330;2023-04-28T16:45:33;15.10;43.10
46562;DHT22;32289;42.688;23.330;2023-04-28T16:49:14;15.00;43.40
46562;DHT22;32289;42.688;23.330;2023-04-28T16:52:55;14.80;43.50
46562;DHT22;32289;42.688;23.330;2023-04-28T16:56:36;14.70;43.80
46562;DHT22;32289;42.688;23.330;2023-04-28T17:00:18;14.70;43.90
46562;DHT22;32289;42.688;23.330;2023-04-28T17:03:59;14.60;44.10
46562;DHT22;32289;42.688;23.330;2023-04-28T17:07:42;14.50;44.50
46562;DHT22;32289;42.688;23.330;2023-04-28T17:11:23;14.50;44.50
46562;DHT22;32289;42.688;23.330;2023-04-28T17:15:05;14.40;44.70
46562;DHT22;32289;42.688;23.330;2023-04-28T17:18:45;14.30;45.00
46562;DHT22;32289;42.688;23.330;2023-04-28T17:22:27;14.30;44.90
46562;DHT22;32289;42.688;23.330;2023-04-28T17:26:09;14.20;45.20
46562;DHT22;32289;42.688;23.330;2023-04-28T17:29:50;14.20;45.60
46562;DHT22;32289;42.688;23.330;2023-04-28T17:33:31;14.10;46.10
46562;DHT22;32289;42.688;23.330;2023-04-28T17:37:11;14.00;46.40
46562;DHT22;32289;42.688;23.330;2023-04-28T17:40:52;13.90;46.20
46562;DHT22;32289;42.688;23.330;2023-04-28T17:44:33;13.80;46.30
46562;DHT22;32289;42.688;23.330;2023-04-28T17:48:13;13.90;45.90
46562;DHT22;32289;42.688;23.330;2023-04-28T17:51:55;13.70;46.30
46562;DHT22;32289;42.688;23.330;2023-04-28T17:55:35;13.60;46.80
46562;DHT22;32289;42.688;23.330;2023-04-28T17:59:16;13.50;47.10
46562;DHT22;32289;42.688;23.330;2023-04-28T18:02:57;13.40;47.90
46562;DHT22;32289;42.688;23.330;2023-04-28T18:06:38;13.50;47.90
46562;DHT22;32289;42.688;23.330;2023-04-28T18:10:18;13.20;50.20
46562;DHT22;32289;42.688;23.330;2023-04-28T18:13:59;13.00;52.40
46562;DHT22;32289;42.688;23.330;2023-04-28T18:17:40;12.70;54.50
46562;DHT22;32289;42.688;23.330;2023-04-28T18:21:20;12.50;55.50
46562;DHT22;32289;42.688;23.330;2023-04-28T18:25:01;12.50;56.10
46562;DHT22;32289;42.688;23.330;2023-04-28T18:28:45;12.70;56.70
46562;DHT22;32289;42.688;23.330;2023-04-28T18:32:27;12.60;57.10
46562;DHT22;32289;42.688;23.330;2023-04-28T18:36:13;12.30;57.40
46562;DHT22;32289;42.688;23.330;2023-04-28T18:39:55;12.30;57.70
46562;DHT22;32289;42.688;23.330;2023-04-28T18:43:36;12.20;58.40
46562;DHT22;32289;42.688;23.330;2023-04-28T18:47:17;12.00;59.00
46562;DHT22;32289;42.688;23.330;2023-04-28T18:50:59;12.10;60.00
46562;DHT22;32289;42.688;23.330;2023-04-28T18:54:40;12.10;59.50
46562;DHT22;32289;42.688;23.330;2023-04-28T18:58:21;12.00;59.90
46562;DHT22;32289;42.688;23.330;2023-04-28T19:02:02;11.90;60.70
46562;DHT22;32289;42.688;23.330;2023-04-28T19:05:44;11.70;60.60
46562;DHT22;32289;42.688;23.330;2023-04-28T19:09:25;11.80;63.10
46562;DHT22;32289;42.688;23.330;2023-04-28T19:13:06;11.60;62.20
46562;DHT22;32289;42.688;23.330;2023-04-28T19:16:46;11.50;62.90
46562;DHT22;32289;42.688;23.330;2023-04-28T19:20:27;11.40;63.40
46562;DHT22;32289;42.688;23.330;2023-04-28T19:24:08;11.20;63.60
46562;DHT22;32289;42.688;23.330;2023-04-28T19:27:48;11.30;64.20
46562;DHT22;32289;42.688;23.330;2023-04-28T19:31:29;11.30;65.20
46562;DHT22;32289;42.688;23.330;2023-04-28T19:35:10;11.30;66.00
46562;DHT22;32289;42.688;23.330;2023-04-28T19:38:50;11.10;67.10
46562;DHT22;32289;42.688;23.330;2023-04-28T19:42:33;11.00;67.50
46562;DHT22;32289;42.688;23.330;2023-04-28T19:46:14;11.00;67.80
46562;DHT22;32289;42.688;23.330;2023-04-28T19:49:59;11.00;68.90
46562;DHT22;32289;42.688;23.330;2023-04-28T19:53:40;10.90;70.40
46562;DHT22;32289;42.688;23.330;2023-04-28T19:57:20;10.90;71.60
46562;DHT22;32289;42.688;23.330;2023-04-28T20:01:05;10.80;73.90
46562;DHT22;32289;42.688;23.330;2023-04-28T20:04:47;10.60;74.50
46562;DHT22;32289;42.688;23.330;2023-04-28T20:08:28;10.40;79.90
46562;DHT22;32289;42.688;23.330;2023-04-28T20:12:09;10.50;83.40
46562;DHT22;32289;42.688;23.330;2023-04-28T20:15:50;10.30;83.30
46562;DHT22;32289;42.688;23.330;2023-04-28T20:19:31;10.20;84.90
46562;DHT22;32289;42.688;23.330;2023-04-28T20:23:11;10.00;86.80
46562;DHT22;32289;42.688;23.330;2023-04-28T20:26:52;9.90;87.20
46562;DHT22;32289;42.688;23.330;2023-04-28T20:30:33;9.90;91.50
46562;DHT22;32289;42.688;23.330;2023-04-28T20:34:14;9.90;92.00
46562;DHT22;32289;42.688;23.330;2023-04-28T20:37:56;9.80;91.00
46562;DHT22;32289;42.688;23.330;2023-04-28T20:41:37;9.70;92.30
46562;DHT22;32289;42.688;23.330;2023-04-28T20:45:20;9.90;93.70
46562;DHT22;32289;42.688;23.330;2023-04-28T20:49:01;9.80;93.70
46562;DHT22;32289;42.688;23.330;2023-04-28T20:52:42;9.70;94.30
46562;DHT22;32289;42.688;23.330;2023-04-28T20:56:23;9.70;95.60
46562;DHT22;32289;42.688;23.330;2023-04-28T21:00:04;9.70;95.30
46562;DHT22;32289;42.688;23.330;2023-04-28T21:03:46;9.60;96.10
46562;DHT22;32289;42.688;23.330;2023-04-28T21:07:27;9.60;95.90
46562;DHT22;32289;42.688;23.330;2023-04-28T21:11:11;9.70;94.10
46562;DHT22;32289;42.688;23.330;2023-04-28T21:14:53;9.80;96.00
46562;DHT22;32289;42.688;23.330;2023-04-28T21:18:33;9.40;97.30
46562;DHT22;32289;42.688;23.330;2023-04-28T21:22:14;9.30;98.50
46562;DHT22;32289;42.688;23.330;2023-04-28T21:25:55;8.80;99.90
46562;DHT22;32289;42.688;23.330;2023-04-28T21:29:36;9.00;99.90
46562;DHT22;32289;42.688;23.330;2023-04-28T21:33:17;9.00;98.70
46562;DHT22;32289;42.688;23.330;2023-04-28T21:36:58;8.90;99.00
46562;DHT22;32289;42.688;23.330;2023-04-28T21:40:40;8.80;99.60
46562;DHT22;32289;42.688;23.330;2023-04-28T21:44:21;8.80;98.70
46562;DHT22;32289;42.688;23.330;2023-04-28T21:48:02;8.70;99.00
46562;DHT22;32289;42.688;23.330;2023-04-28T21:51:43;8.60;99.20
46562;DHT22;32289;42.688;23.330;2023-04-28T21:55:25;8.50;99.40
46562;DHT22;32289;42.688;23.330;2023-04-28T21:59:05;8.50;99.90
46562;DHT22;32289;42.688;23.330;2023-04-28T22:02:46;8.70;99.90
46562;DHT22;32289;42.688;23.330;2023-04-28T22:06:28;8.60;99.90
46562;DHT22;32289;42.688;23.330;2023-04-28T22:10:10;8.40;99.90
46562;DHT22;32289;42.688;23.330;2023-04-28T22:13:51;8.30;99.90
46562;DHT22;32289;42.688;23.330;2023-04-28T22:17:31;8.20;99.90
46562;DHT22;32289;42.688;23.330;2023-04-28T22:21:12;8.20;99.90
46562;DHT22;32289;42.688;23.330;2023-04-28T22:24:53;8.20;99.90
46562;DHT22;32289;42.688;23.330;2023-04-28T22:28:34;8.00;99.90
46562;DHT22;32289;42.688;23.330;2023-04-28T22:32:15;7.90;99.90
46562;DHT22;32289;42.688;23.330;2023-04-28T22:35:56;7.70;99.90
46562;DHT22;32289;42.688;23.330;2023-04-28T22:39:37;7.70;99.90
46562;DHT22;32289;42.688;23.330;2023-04-28T22:43:17;7.80;99.90
46562;DHT22;32289;42.688;23.330;2023-04-28T22:46:58;7.70;99.90
46562;DHT22;32289;42.688;23.330;2023-04-28T22:50:39;7.90;99.90
46562;DHT22;32289;42.688;23.330;2023-04-28T22:54:20;7.70;99.90
46562;DHT22;32289;42.688;23.330;2023-04-28T22:58:00;7.40;99.90
46562;DHT22;32289;42.688;23.330;2023-04-28T23:01:41;7.60;99.90
46562;DHT22;32289;42.688;23.330;2023-04-28T23:05:22;7.30;99.90
46562;DHT22;32289;42.688;23.330;2023-04-28T23:09:03;7.50;99.90
46562;DHT22;32289;42.688;23.330;2023-04-28T23:12:44;7.50;99.90
46562;DHT22;32289;42.688;23.330;2023-04-28T23:16:25;7.50;99.90
46562;DHT22;32289;42.688;23.330;2023-04-28T23:20:06;7.60;99.90
46562;DHT22;32289;42.688;23.330;2023-04-28T23:23:47;7.50;99.90
46562;DHT22;32289;42.688;23.330;2023-04-28T23:27:28;7.60;99.90